sensor_id;sensor_type;location;lat;lon;timestamp;P1;durP1;ratioP1;P2;durP2;ratioP2
76417;SDS011;65250;47.602;19.002;2022-11-15T17:23:41;10.50;;;8.00;;
76417;SDS011;65250;47.602;19.002;2022-11-15T17:26:08;11.10;;;7.90;;
76417;SDS011;65250;47.602;19.002;2022-11-15T17:28:37;11.17;;;7.90;;
76417;SDS011;65250;47.602;19.002;2022-11-15T17:31:05;10.63;;;7.78;;
76417;SDS011;65250;47.602;19.002;2022-11-15T17:33:31;9.63;;;7.95;;
76417;SDS011;65250;47.602;19.002;2022-11-15T17:35:57;10.97;;;7.80;;
76417;SDS011;65250;47.602;19.002;2022-11-15T17:38:23;9.35;;;7.90;;
76417;SDS011;65250;47.602;19.002;2022-11-15T17:40:58;10.47;;;7.83;;
76417;SDS011;65250;47.602;19.002;2022-11-15T17:43:28;9.68;;;8.00;;
76417;SDS011;65250;47.602;19.002;2022-11-15T17:45:55;10.63;;;8.57;;
76417;SDS011;65250;47.602;19.002;2022-11-15T17:48:20;10.57;;;8.57;;
76417;SDS011;65250;47.602;19.002;2022-11-15T17:50:58;9.07;;;8.00;;
76417;SDS011;65250;47.602;19.002;2022-11-15T17:53:25;8.73;;;7.50;;
76417;SDS011;65250;47.602;19.002;2022-11-15T17:55:51;9.77;;;8.07;;
76417;SDS011;65250;47.602;19.002;2022-11-15T17:58:17;10.80;;;7.95;;
76417;SDS011;65250;47.602;19.002;2022-11-15T18:00:44;10.13;;;7.70;;
76417;SDS011;65250;47.602;19.002;2022-11-15T18:03:10;11.25;;;8.85;;
76417;SDS011;65250;47.602;19.002;2022-11-15T18:05:35;13.27;;;9.63;;
76417;SDS011;65250;47.602;19.002;2022-11-15T18:08:00;12.13;;;8.90;;
76417;SDS011;65250;47.602;19.002;2022-11-15T18:10:26;11.57;;;8.83;;
76417;SDS011;65250;47.602;19.002;2022-11-15T18:12:51;10.30;;;9.00;;
76417;SDS011;65250;47.602;19.002;2022-11-15T18:15:16;11.80;;;9.07;;
76417;SDS011;65250;47.602;19.002;2022-11-15T18:17:43;11.82;;;9.55;;
76417;SDS011;65250;47.602;19.002;2022-11-15T18:20:08;10.43;;;8.60;;
76417;SDS011;65250;47.602;19.002;2022-11-15T18:22:34;11.17;;;8.80;;
76417;SDS011;65250;47.602;19.002;2022-11-15T18:24:59;25.70;;;9.07;;
76417;SDS011;65250;47.602;19.002;2022-11-15T18:27:24;10.38;;;8.60;;
76417;SDS011;65250;47.602;19.002;2022-11-15T18:29:50;10.40;;;8.67;;
76417;SDS011;65250;47.602;19.002;2022-11-15T18:32:15;10.10;;;8.87;;
76417;SDS011;65250;47.602;19.002;2022-11-15T18:34:41;10.65;;;9.00;;
76417;SDS011;65250;47.602;19.002;2022-11-15T18:37:07;12.50;;;8.90;;
76417;SDS011;65250;47.602;19.002;2022-11-15T18:39:32;12.27;;;8.57;;
76417;SDS011;65250;47.602;19.002;2022-11-15T18:41:58;10.67;;;9.03;;
76417;SDS011;65250;47.602;19.002;2022-11-15T18:44:23;10.88;;;9.05;;
76417;SDS011;65250;47.602;19.002;2022-11-15T18:46:48;9.73;;;8.53;;
76417;SDS011;65250;47.602;19.002;2022-11-15T18:49:14;10.93;;;8.45;;
76417;SDS011;65250;47.602;19.002;2022-11-15T18:51:44;11.13;;;8.40;;
76417;SDS011;65250;47.602;19.002;2022-11-15T18:54:11;11.70;;;8.82;;
76417;SDS011;65250;47.602;19.002;2022-11-15T18:56:37;10.57;;;8.90;;
76417;SDS011;65250;47.602;19.002;2022-11-15T18:59:03;9.80;;;7.85;;
76417;SDS011;65250;47.602;19.002;2022-11-15T19:01:30;9.32;;;8.07;;
76417;SDS011;65250;47.602;19.002;2022-11-15T19:03:58;9.90;;;8.30;;
76417;SDS011;65250;47.602;19.002;2022-11-15T19:06:26;11.95;;;8.88;;
76417;SDS011;65250;47.602;19.002;2022-11-15T19:08:54;9.95;;;7.65;;
76417;SDS011;65250;47.602;19.002;2022-11-15T19:13:51;10.23;;;8.27;;
76417;SDS011;65250;47.602;19.002;2022-11-15T19:16:21;11.47;;;8.37;;
76417;SDS011;65250;47.602;19.002;2022-11-15T19:18:47;11.48;;;8.30;;
76417;SDS011;65250;47.602;19.002;2022-11-15T19:21:16;9.85;;;7.82;;
76417;SDS011;65250;47.602;19.002;2022-11-15T19:23:42;9.20;;;7.47;;
76417;SDS011;65250;47.602;19.002;2022-11-15T19:26:11;9.43;;;8.07;;
76417;SDS011;65250;47.602;19.002;2022-11-15T19:28:38;9.75;;;8.43;;
76417;SDS011;65250;47.602;19.002;2022-11-15T19:31:13;11.55;;;7.32;;
76417;SDS011;65250;47.602;19.002;2022-11-15T19:33:40;10.40;;;7.73;;
76417;SDS011;65250;47.602;19.002;2022-11-15T19:36:16;10.23;;;7.68;;
76417;SDS011;65250;47.602;19.002;2022-11-15T19:38:45;9.18;;;7.32;;
76417;SDS011;65250;47.602;19.002;2022-11-15T19:41:18;8.67;;;7.43;;
76417;SDS011;65250;47.602;19.002;2022-11-15T19:43:44;9.63;;;7.95;;
76417;SDS011;65250;47.602;19.002;2022-11-15T19:46:14;9.35;;;7.57;;
76417;SDS011;65250;47.602;19.002;2022-11-15T19:48:40;8.90;;;7.40;;
76417;SDS011;65250;47.602;19.002;2022-11-15T19:51:10;9.73;;;7.67;;
76417;SDS011;65250;47.602;19.002;2022-11-15T19:53:36;8.52;;;7.30;;
76417;SDS011;65250;47.602;19.002;2022-11-15T19:56:03;8.43;;;7.47;;
76417;SDS011;65250;47.602;19.002;2022-11-15T19:58:32;9.88;;;7.95;;
76417;SDS011;65250;47.602;19.002;2022-11-15T20:01:02;9.35;;;7.85;;
76417;SDS011;65250;47.602;19.002;2022-11-15T20:03:29;9.37;;;7.97;;
76417;SDS011;65250;47.602;19.002;2022-11-15T20:06:02;8.48;;;7.55;;
76417;SDS011;65250;47.602;19.002;2022-11-15T20:08:35;9.32;;;7.68;;
76417;SDS011;65250;47.602;19.002;2022-11-15T20:11:01;10.68;;;7.72;;
76417;SDS011;65250;47.602;19.002;2022-11-15T20:13:27;8.77;;;7.67;;
76417;SDS011;65250;47.602;19.002;2022-11-15T20:15:53;10.23;;;7.65;;
76417;SDS011;65250;47.602;19.002;2022-11-15T20:18:19;9.90;;;7.40;;
76417;SDS011;65250;47.602;19.002;2022-11-15T20:20:45;9.02;;;7.50;;
76417;SDS011;65250;47.602;19.002;2022-11-15T20:23:11;8.50;;;7.40;;
76417;SDS011;65250;47.602;19.002;2022-11-15T20:25:37;8.13;;;6.88;;
76417;SDS011;65250;47.602;19.002;2022-11-15T20:28:06;8.70;;;7.70;;
76417;SDS011;65250;47.602;19.002;2022-11-15T20:30:32;10.20;;;7.67;;
76417;SDS011;65250;47.602;19.002;2022-11-15T20:32:57;8.50;;;7.53;;
76417;SDS011;65250;47.602;19.002;2022-11-15T20:35:22;8.97;;;7.40;;
76417;SDS011;65250;47.602;19.002;2022-11-15T20:37:48;8.27;;;7.25;;
76417;SDS011;65250;47.602;19.002;2022-11-15T20:40:13;8.63;;;7.20;;
76417;SDS011;65250;47.602;19.002;2022-11-15T20:42:39;9.13;;;7.87;;
76417;SDS011;65250;47.602;19.002;2022-11-15T20:45:04;9.83;;;7.73;;
76417;SDS011;65250;47.602;19.002;2022-11-15T20:47:30;10.20;;;8.23;;
76417;SDS011;65250;47.602;19.002;2022-11-15T20:49:57;9.48;;;7.95;;
76417;SDS011;65250;47.602;19.002;2022-11-15T20:52:22;9.73;;;8.10;;
76417;SDS011;65250;47.602;19.002;2022-11-15T20:54:48;10.80;;;8.03;;
76417;SDS011;65250;47.602;19.002;2022-11-15T20:57:13;10.37;;;7.57;;
76417;SDS011;65250;47.602;19.002;2022-11-15T20:59:38;10.70;;;8.33;;
76417;SDS011;65250;47.602;19.002;2022-11-15T21:02:04;9.57;;;7.50;;
76417;SDS011;65250;47.602;19.002;2022-11-15T21:04:29;9.13;;;7.90;;
76417;SDS011;65250;47.602;19.002;2022-11-15T21:06:54;10.80;;;8.03;;
76417;SDS011;65250;47.602;19.002;2022-11-15T21:09:22;8.45;;;7.38;;
76417;SDS011;65250;47.602;19.002;2022-11-15T21:12:07;10.43;;;8.15;;
76417;SDS011;65250;47.602;19.002;2022-11-15T21:14:38;9.77;;;7.65;;
76417;SDS011;65250;47.602;19.002;2022-11-15T21:17:04;9.55;;;7.70;;
76417;SDS011;65250;47.602;19.002;2022-11-15T21:20:07;11.20;;;8.35;;
76417;SDS011;65250;47.602;19.002;2022-11-15T21:22:39;9.13;;;7.53;;
76417;SDS011;65250;47.602;19.002;2022-11-15T21:25:11;8.98;;;7.50;;
76417;SDS011;65250;47.602;19.002;2022-11-15T21:27:42;10.07;;;7.78;;
76417;SDS011;65250;47.602;19.002;2022-11-15T21:30:13;8.48;;;7.43;;
76417;SDS011;65250;47.602;19.002;2022-11-15T21:32:45;9.80;;;7.97;;
76417;SDS011;65250;47.602;19.002;2022-11-15T21:35:16;9.10;;;7.60;;
76417;SDS011;65250;47.602;19.002;2022-11-15T21:39:52;8.53;;;7.50;;
76417;SDS011;65250;47.602;19.002;2022-11-15T21:42:24;9.60;;;7.55;;
76417;SDS011;65250;47.602;19.002;2022-11-15T21:44:57;9.75;;;8.00;;
76417;SDS011;65250;47.602;19.002;2022-11-15T21:47:28;9.43;;;7.63;;
76417;SDS011;65250;47.602;19.002;2022-11-15T21:50:00;9.13;;;7.38;;
76417;SDS011;65250;47.602;19.002;2022-11-15T21:52:31;9.83;;;7.07;;
76417;SDS011;65250;47.602;19.002;2022-11-15T21:55:03;8.63;;;7.72;;
76417;SDS011;65250;47.602;19.002;2022-11-15T21:57:35;10.18;;;8.10;;
76417;SDS011;65250;47.602;19.002;2022-11-15T22:00:06;9.48;;;7.53;;
76417;SDS011;65250;47.602;19.002;2022-11-15T22:02:57;9.35;;;7.63;;
76417;SDS011;65250;47.602;19.002;2022-11-15T22:09:10;10.05;;;7.43;;
76417;SDS011;65250;47.602;19.002;2022-11-15T22:11:37;9.88;;;7.70;;
76417;SDS011;65250;47.602;19.002;2022-11-15T22:14:04;8.37;;;7.20;;
76417;SDS011;65250;47.602;19.002;2022-11-15T22:16:30;8.20;;;6.82;;
76417;SDS011;65250;47.602;19.002;2022-11-15T22:18:58;9.52;;;7.65;;
76417;SDS011;65250;47.602;19.002;2022-11-15T22:21:25;9.50;;;7.72;;
76417;SDS011;65250;47.602;19.002;2022-11-15T22:23:52;10.23;;;8.10;;
76417;SDS011;65250;47.602;19.002;2022-11-15T22:26:18;9.13;;;7.50;;
76417;SDS011;65250;47.602;19.002;2022-11-15T22:28:49;9.15;;;7.30;;
76417;SDS011;65250;47.602;19.002;2022-11-15T22:31:16;8.68;;;7.55;;
76417;SDS011;65250;47.602;19.002;2022-11-15T22:33:43;9.23;;;7.60;;
76417;SDS011;65250;47.602;19.002;2022-11-15T22:36:10;9.48;;;7.50;;
76417;SDS011;65250;47.602;19.002;2022-11-15T22:38:37;8.37;;;7.53;;
76417;SDS011;65250;47.602;19.002;2022-11-15T22:41:04;10.60;;;8.05;;
76417;SDS011;65250;47.602;19.002;2022-11-15T22:43:31;9.77;;;7.88;;
76417;SDS011;65250;47.602;19.002;2022-11-15T22:45:58;10.57;;;8.13;;
76417;SDS011;65250;47.602;19.002;2022-11-15T22:48:27;9.38;;;7.28;;
76417;SDS011;65250;47.602;19.002;2022-11-15T22:50:55;8.97;;;7.60;;
76417;SDS011;65250;47.602;19.002;2022-11-15T22:53:23;10.10;;;7.78;;
76417;SDS011;65250;47.602;19.002;2022-11-15T22:55:54;11.10;;;7.82;;
76417;SDS011;65250;47.602;19.002;2022-11-15T22:58:22;9.63;;;7.97;;
76417;SDS011;65250;47.602;19.002;2022-11-15T23:00:50;8.68;;;7.78;;
76417;SDS011;65250;47.602;19.002;2022-11-15T23:03:19;10.27;;;7.83;;
76417;SDS011;65250;47.602;19.002;2022-11-15T23:05:46;9.52;;;7.72;;
76417;SDS011;65250;47.602;19.002;2022-11-15T23:08:13;9.88;;;7.63;;
76417;SDS011;65250;47.602;19.002;2022-11-15T23:10:40;10.02;;;7.70;;
76417;SDS011;65250;47.602;19.002;2022-11-15T23:13:26;10.50;;;7.88;;
76417;SDS011;65250;47.602;19.002;2022-11-15T23:16:07;11.03;;;7.83;;
76417;SDS011;65250;47.602;19.002;2022-11-15T23:19:13;9.95;;;7.70;;
76417;SDS011;65250;47.602;19.002;2022-11-15T23:22:00;16.08;;;8.40;;
76417;SDS011;65250;47.602;19.002;2022-11-15T23:25:06;13.88;;;7.32;;
76417;SDS011;65250;47.602;19.002;2022-11-15T23:27:33;9.52;;;6.97;;
76417;SDS011;65250;47.602;19.002;2022-11-15T23:29:59;12.40;;;7.13;;
76417;SDS011;65250;47.602;19.002;2022-11-15T23:32:45;11.40;;;7.78;;
76417;SDS011;65250;47.602;19.002;2022-11-15T23:35:30;9.65;;;7.05;;
76417;SDS011;65250;47.602;19.002;2022-11-15T23:37:57;10.20;;;7.20;;
76417;SDS011;65250;47.602;19.002;2022-11-15T23:40:24;13.48;;;7.72;;
76417;SDS011;65250;47.602;19.002;2022-11-15T23:42:51;9.57;;;7.40;;
76417;SDS011;65250;47.602;19.002;2022-11-15T23:45:17;9.75;;;7.32;;
76417;SDS011;65250;47.602;19.002;2022-11-15T23:47:44;9.68;;;7.43;;
76417;SDS011;65250;47.602;19.002;2022-11-15T23:50:11;10.07;;;7.47;;
76417;SDS011;65250;47.602;19.002;2022-11-15T23:52:38;10.90;;;7.30;;
76417;SDS011;65250;47.602;19.002;2022-11-15T23:55:05;8.87;;;7.30;;
76417;SDS011;65250;47.602;19.002;2022-11-15T23:57:32;8.48;;;7.03;;
76417;SDS011;65250;47.602;19.002;2022-11-15T23:59:58;9.30;;;7.30;;
